Time;durP1;ratioP1;P1;durP2;ratioP2;P2;SDS_P1;SDS_P2;PMS_P1;PMS_P2;Temp;Humidity;BMP_temperature;BMP_pressure;BME280_temperature;BME280_humidity;BME280_pressure;Samples;Min_cycle;Max_cycle;Signal;HPM_P1;HPM_P2
2023/10/24 00:02:16;;;;;;;2.20;1.80;;;;;;;3.40;78.57;98537.06;6127846;23;20059;-93
2023/10/24 00:04:42;;;;;;;2.88;2.10;;;;;;;3.24;79.35;98487.00;6152059;23;20522;-93
2023/10/24 00:07:08;;;;;;;2.38;1.92;;;;;;;3.23;78.59;98507.00;6150847;23;20021;-92
2023/10/24 00:09:36;;;;;;;2.35;2.00;;;;;;;3.41;78.25;98519.78;6198283;23;20012;-92
2023/10/24 00:12:03;;;;;;;2.45;1.70;;;;;;;3.88;78.30;98579.59;6150987;23;20036;-93
2023/10/24 00:14:29;;;;;;;2.90;2.08;;;;;;;3.10;77.34;98467.16;6152078;23;20458;-93
2023/10/24 00:16:56;;;;;;;3.13;2.17;;;;;;;3.56;78.11;98540.44;6129728;23;20020;-95
2023/10/24 00:19:22;;;;;;;2.97;2.08;;;;;;;3.89;78.39;98579.28;6150573;23;20410;-93
2023/10/24 00:21:47;;;;;;;2.83;2.00;;;;;;;3.68;77.85;98542.75;6149690;23;20362;-92
2023/10/24 00:24:14;;;;;;;3.47;2.40;;;;;;;3.57;77.77;98520.41;6151620;23;20016;-93
2023/10/24 00:26:40;;;;;;;2.07;1.90;;;;;;;3.60;77.72;98529.84;6154301;23;20047;-93
2023/10/24 00:29:07;;;;;;;3.07;2.10;;;;;;;3.46;77.87;98532.44;6181898;23;20024;-92
2023/10/24 00:31:38;;;;;;;3.15;2.35;;;;;;;3.48;78.59;98541.88;6158962;23;20051;-93
2023/10/24 00:34:04;;;;;;;4.25;2.45;;;;;;;3.55;78.70;98543.44;6178902;23;20064;-93
2023/10/24 00:36:30;;;;;;;3.08;2.38;;;;;;;3.43;78.71;98551.91;6154867;23;20032;-94
2023/10/24 00:38:57;;;;;;;4.00;2.50;;;;;;;3.42;79.06;98531.41;6152479;23;20062;-94
2023/10/24 00:41:23;;;;;;;6.57;2.78;;;;;;;3.45;78.91;98542.44;6152991;23;20048;-93
2023/10/24 00:43:49;;;;;;;3.28;2.20;;;;;;;3.72;79.60;98577.03;6152411;23;20020;-93
2023/10/24 00:46:16;;;;;;;3.17;2.30;;;;;;;3.94;79.43;98590.06;6151397;23;20016;-92
2023/10/24 00:48:42;;;;;;;3.38;2.70;;;;;;;3.72;79.28;98560.00;6150590;23;20020;-92
2023/10/24 00:51:08;;;;;;;3.65;2.78;;;;;;;4.04;79.41;98601.81;6152882;23;20025;-92
2023/10/24 00:53:36;;;;;;;2.78;2.30;;;;;;;3.97;79.27;98578.66;6151683;23;20047;-93
2023/10/24 00:56:02;;;;;;;8.73;2.60;;;;;;;3.99;78.42;98568.34;6150474;23;20223;-93
2023/10/24 00:58:29;;;;;;;3.13;2.40;;;;;;;4.02;78.94;98580.50;6151442;23;20170;-93
2023/10/24 01:00:56;;;;;;;4.05;2.80;;;;;;;4.13;77.44;98611.72;6152405;23;20063;-91
2023/10/24 01:03:23;;;;;;;3.80;2.88;;;;;;;3.86;78.21;98566.34;6152525;23;20386;-93
2023/10/24 01:05:50;;;;;;;5.03;3.00;;;;;;;3.88;77.71;98571.47;6177655;23;20572;-92
2023/10/24 01:08:16;;;;;;;3.53;2.70;;;;;;;3.86;77.75;98565.53;6175979;23;20043;-93
2023/10/24 01:10:42;;;;;;;3.63;2.63;;;;;;;3.99;77.56;98575.66;6151089;23;20016;-92
2023/10/24 01:13:08;;;;;;;2.88;2.47;;;;;;;4.21;77.42;98618.44;6151564;23;20362;-92
2023/10/24 01:15:34;;;;;;;2.85;2.45;;;;;;;3.96;76.69;98592.47;6175752;23;20043;-92
2023/10/24 01:18:03;;;;;;;3.70;2.58;;;;;;;3.95;77.27;98613.28;6176401;23;20139;-92
2023/10/24 01:20:30;;;;;;;3.80;2.70;;;;;;;3.48;77.51;98527.56;6151154;23;20017;-93
2023/10/24 01:22:56;;;;;;;4.20;2.80;;;;;;;3.70;77.86;98592.72;6151560;23;20446;-93
2023/10/24 01:25:24;;;;;;;4.82;3.08;;;;;;;3.96;78.33;98630.31;6128527;23;20103;-91
2023/10/24 01:27:53;;;;;;;4.13;2.85;;;;;;;4.05;78.63;98641.31;6150103;23;20385;-93
2023/10/24 01:30:20;;;;;;;3.05;2.60;;;;;;;3.89;78.33;98630.66;6151570;23;20079;-91
2023/10/24 01:32:46;;;;;;;5.53;3.40;;;;;;;3.99;78.70;98635.94;6150961;23;20017;-93
2023/10/24 01:35:12;;;;;;;4.53;3.10;;;;;;;3.72;78.78;98584.34;6150624;23;20706;-93
2023/10/24 01:37:38;;;;;;;5.20;3.85;;;;;;;3.65;78.54;98590.06;6153769;23;20036;-91
2023/10/24 01:40:06;;;;;;;5.18;3.45;;;;;;;3.46;78.55;98572.97;6152092;23;20024;-93
2023/10/24 01:42:32;;;;;;;5.57;3.10;;;;;;;3.65;79.11;98617.09;6152381;23;20029;-92
2023/10/24 01:44:58;;;;;;;4.32;2.90;;;;;;;3.79;79.18;98648.88;6151657;23;20040;-93
2023/10/24 01:47:24;;;;;;;4.75;3.45;;;;;;;3.67;79.67;98639.22;6162140;23;20017;-93
2023/10/24 01:49:50;;;;;;;5.97;3.67;;;;;;;3.68;79.57;98630.06;6155750;23;20028;-93
2023/10/24 01:52:16;;;;;;;4.43;3.05;;;;;;;3.38;79.65;98611.38;6156970;23;20434;-91
2023/10/24 01:54:42;;;;;;;5.07;3.83;;;;;;;3.47;80.34;98621.28;6157601;23;20016;-94
2023/10/24 01:57:08;;;;;;;6.18;4.13;;;;;;;3.26;80.40;98590.94;6152590;23;20451;-93
2023/10/24 01:59:34;;;;;;;5.75;3.35;;;;;;;3.73;80.59;98665.13;6152579;23;20087;-93
2023/10/24 02:02:00;;;;;;;5.43;3.78;;;;;;;3.48;80.80;98614.81;6151642;23;20025;-92
2023/10/24 02:04:26;;;;;;;6.28;3.65;;;;;;;3.43;79.81;98601.34;6129886;23;20025;-92
2023/10/24 02:06:52;;;;;;;5.78;3.83;;;;;;;3.87;80.27;98667.16;6153615;23;20073;-93
2023/10/24 02:09:18;;;;;;;8.98;3.80;;;;;;;4.06;80.40;98673.47;6152224;23;20013;-93
2023/10/24 02:11:44;;;;;;;5.72;3.78;;;;;;;3.81;78.89;98655.63;6151020;23;20024;-94
2023/10/24 02:14:16;;;;;;;5.28;3.78;;;;;;;3.59;79.45;98623.63;6153077;23;20107;-93
2023/10/24 02:16:44;;;;;;;6.50;3.88;;;;;;;3.83;79.36;98664.22;6179588;23;20016;-93
2023/10/24 02:19:10;;;;;;;6.05;3.80;;;;;;;3.87;79.60;98673.38;6128178;23;20026;-92
2023/10/24 02:21:56;;;;;;;5.75;4.22;;;;;;;3.98;80.03;98687.63;6163999;23;20016;-92
2023/10/24 02:24:23;;;;;;;5.93;3.72;;;;;;;3.74;79.70;98645.13;6152693;23;20511;-93
2023/10/24 02:26:49;;;;;;;9.02;4.38;;;;;;;3.88;80.00;98658.78;6152032;23;20064;-92
2023/10/24 02:29:15;;;;;;;6.95;4.35;;;;;;;3.59;79.61;98631.75;6153157;23;20021;-94
2023/10/24 02:31:41;;;;;;;7.20;4.25;;;;;;;3.89;79.72;98679.31;6152479;23;20462;-92
2023/10/24 02:34:08;;;;;;;5.80;4.03;;;;;;;3.74;79.32;98644.31;6151334;23;20028;-92
2023/10/24 02:36:34;;;;;;;9.40;4.43;;;;;;;3.76;79.25;98659.16;6152801;23;20017;-94
2023/10/24 02:39:00;;;;;;;7.90;5.00;;;;;;;4.08;79.63;98692.13;6149974;23;20477;-93
2023/10/24 02:41:27;;;;;;;;;;;;;;;4.08;79.61;98703.75;6150346;23;20099;-92
2023/10/24 02:43:54;;;;;;;6.30;3.95;;;;;;;3.75;80.12;98675.66;6151970;23;19959;-95
2023/10/24 02:46:20;;;;;;;15.90;5.40;;;;;;;3.49;80.54;98629.13;6128515;23;20027;-92
2023/10/24 02:48:46;;;;;;;7.60;4.93;;;;;;;3.90;80.74;98710.66;6151443;23;20048;-92
2023/10/24 02:51:12;;;;;;;8.88;5.25;;;;;;;3.49;80.82;98626.44;6153319;23;20032;-92
2023/10/24 02:53:38;;;;;;;11.95;5.18;;;;;;;3.77;80.67;98654.53;6151334;23;20046;-91
2023/10/24 02:56:04;;;;;;;8.48;5.40;;;;;;;4.11;80.63;98697.78;6150983;23;20023;-92
2023/10/24 02:58:31;;;;;;;9.32;5.07;;;;;;;3.93;79.85;98672.25;6151398;23;20020;-93
2023/10/24 03:01:03;;;;;;;11.17;5.87;;;;;;;4.23;79.63;98730.63;6152409;23;20024;-93
2023/10/24 03:03:30;;;;;;;9.20;5.38;;;;;;;4.01;79.67;98692.47;6176248;23;20043;-91
2023/10/24 03:05:56;;;;;;;8.95;5.22;;;;;;;4.11;79.78;98715.91;6151408;23;20012;-91
2023/10/24 03:08:22;;;;;;;11.10;5.95;;;;;;;3.94;79.72;98694.69;6151370;23;20016;-92
2023/10/24 03:10:48;;;;;;;10.55;6.00;;;;;;;4.10;79.82;98733.22;6146664;23;20021;-93
2023/10/24 03:13:14;;;;;;;12.60;5.40;;;;;;;4.12;80.37;98728.34;6147516;23;20017;-92
2023/10/24 03:15:43;;;;;;;11.73;5.63;;;;;;;3.90;80.37;98690.94;6170750;23;20036;-91
2023/10/24 03:18:09;;;;;;;10.35;5.57;;;;;;;3.96;80.40;98703.31;6146748;23;20024;-93
2023/10/24 03:20:39;;;;;;;9.93;6.03;;;;;;;4.18;80.57;98743.44;6146415;23;20450;-92
2023/10/24 03:23:05;;;;;;;10.88;6.20;;;;;;;4.03;80.58;98705.69;6148888;23;20013;-91
2023/10/24 03:25:31;;;;;;;11.38;5.82;;;;;;;4.14;80.18;98724.25;6149223;23;20336;-91
2023/10/24 03:27:57;;;;;;;13.40;6.60;;;;;;;3.96;80.44;98698.72;6171893;23;20028;-92
2023/10/24 03:30:23;;;;;;;13.02;6.45;;;;;;;3.80;80.47;98659.38;6148247;23;20017;-92
2023/10/24 03:32:50;;;;;;;10.43;5.15;;;;;;;3.82;80.20;98665.31;6148753;23;20008;-92
2023/10/24 03:35:17;;;;;;;11.27;6.22;;;;;;;4.10;80.37;98706.16;6173711;23;20017;-93
2023/10/24 03:37:44;;;;;;;12.65;6.53;;;;;;;4.27;80.04;98730.06;6149707;23;20068;-92
2023/10/24 03:40:11;;;;;;;12.38;6.57;;;;;;;4.20;80.47;98717.69;6151428;23;20021;-94
2023/10/24 03:42:37;;;;;;;13.73;7.15;;;;;;;4.16;80.08;98697.72;6148478;23;20482;-92
2023/10/24 03:45:04;;;;;;;15.88;6.95;;;;;;;4.02;79.62;98695.97;6148336;23;20017;-90
2023/10/24 03:47:31;;;;;;;9.77;5.80;;;;;;;4.10;78.55;98749.44;6148642;23;20100;-92
2023/10/24 03:49:57;;;;;;;11.77;6.72;;;;;;;3.89;78.79;98738.00;6150725;23;20021;-92
2023/10/24 03:52:28;;;;;;;12.23;7.10;;;;;;;4.05;78.74;98763.81;6150237;23;20025;-91
2023/10/24 03:54:54;;;;;;;14.18;7.63;;;;;;;3.67;78.83;98727.63;6150847;23;20051;-91
2023/10/24 03:57:21;;;;;;;14.93;8.27;;;;;;;3.66;78.87;98718.72;6175371;23;20013;-91
2023/10/24 03:59:48;;;;;;;12.02;7.47;;;;;;;3.94;78.53;98736.06;6147360;23;20472;-92
2023/10/24 04:02:15;;;;;;;14.18;8.35;;;;;;;4.02;78.38;98785.22;6157130;23;20024;-91
2023/10/24 04:04:41;;;;;;;17.42;8.20;;;;;;;3.68;78.77;98750.88;6133131;23;20005;-92
2023/10/24 04:07:09;;;;;;;15.90;9.52;;;;;;;3.75;78.60;98743.25;6157086;23;20021;-91
2023/10/24 04:09:37;;;;;;;18.45;9.15;;;;;;;4.00;78.50;98777.38;6178596;23;20013;-91
2023/10/24 04:12:05;;;;;;;22.13;8.27;;;;;;;3.89;78.13;98755.03;6160510;23;20031;-92
2023/10/24 04:14:38;;;;;;;20.08;8.95;;;;;;;4.19;78.26;98804.53;6185199;23;20059;-90
2023/10/24 04:17:15;;;;;;;15.25;9.80;;;;;;;4.24;78.06;98818.03;6190687;23;20020;-90
2023/10/24 04:20:06;;;;;;;15.60;8.93;;;;;;;3.63;77.67;98731.97;6184602;23;20076;-93
2023/10/24 04:22:33;;;;;;;12.57;7.63;;;;;;;3.78;77.51;98782.44;6186180;23;20024;-91
2023/10/24 04:24:59;;;;;;;18.42;10.00;;;;;;;4.06;77.62;98824.13;6135362;23;20103;-89
2023/10/24 04:27:26;;;;;;;14.73;8.85;;;;;;;4.08;77.55;98817.34;6158334;23;20020;-90
2023/10/24 04:29:53;;;;;;;14.60;8.00;;;;;;;3.65;75.94;98773.84;6161665;23;20020;-91
2023/10/24 04:32:21;;;;;;;16.00;9.90;;;;;;;3.86;76.51;98814.25;6211726;23;20068;-93
2023/10/24 04:34:51;;;;;;;18.90;10.50;;;;;;;4.00;76.60;98840.38;6111235;23;20028;-92
2023/10/24 04:37:18;;;;;;;19.73;9.18;;;;;;;3.88;76.51;98818.31;6186064;23;20051;-90
2023/10/24 04:39:44;;;;;;;16.63;9.82;;;;;;;3.80;75.98;98805.38;6136148;23;20024;-91
2023/10/24 04:45:13;;;;;;;16.67;9.80;;;;;;;4.15;75.32;98857.59;6193862;23;20044;-90
2023/10/24 04:47:39;;;;;;;14.57;8.82;;;;;;;4.15;74.95;98873.84;6106939;23;20463;-91
2023/10/24 04:50:13;;;;;;;17.10;9.75;;;;;;;3.46;74.85;98791.81;6131912;23;20021;-92
2023/10/24 04:52:40;;;;;;;16.58;9.48;;;;;;;3.88;74.92;98839.94;6183244;23;20021;-90
2023/10/24 04:55:18;;;;;;;14.57;8.55;;;;;;;4.07;74.47;98877.91;6158816;23;20093;-89
2023/10/24 04:57:47;;;;;;;19.40;10.15;;;;;;;3.58;74.34;98791.47;6128988;23;20021;-92
2023/10/24 05:00:14;;;;;;;16.13;9.70;;;;;;;4.16;74.33;98887.06;6084294;23;20682;-89
2023/10/24 05:02:45;;;;;;;;;;;;;;;4.15;74.36;98890.06;6109059;23;20055;-92
2023/10/24 05:05:36;;;;;;;18.17;9.07;;;;;;;3.83;74.23;98831.84;6180553;23;19916;-91
2023/10/24 05:08:10;;;;;;;16.15;9.13;;;;;;;4.15;74.26;98892.75;6130718;23;20021;-93
2023/10/24 05:10:38;;;;;;;17.27;9.50;;;;;;;3.82;74.68;98856.47;6156060;23;20017;-90
2023/10/24 05:13:06;;;;;;;16.10;9.55;;;;;;;3.72;74.92;98841.13;6104053;23;20262;-88
2023/10/24 05:15:32;;;;;;;16.17;8.52;;;;;;;4.08;74.48;98905.81;6153272;23;20077;-90
2023/10/24 05:18:00;;;;;;;19.60;10.95;;;;;;;4.17;74.71;98912.22;6105836;23;20025;-91
2023/10/24 05:20:27;;;;;;;17.95;10.45;;;;;;;4.04;75.02;98877.69;6130391;23;20001;-91
2023/10/24 05:23:02;;;;;;;18.60;10.13;;;;;;;4.03;74.90;98873.38;6179463;23;20044;-90
2023/10/24 05:25:35;;;;;;;21.05;11.35;;;;;;;4.33;74.82;98907.50;6180749;23;20036;-92
2023/10/24 05:28:06;;;;;;;15.43;9.40;;;;;;;4.08;73.99;98865.22;6183714;23;20032;-91
2023/10/24 05:33:20;;;;;;;18.35;10.23;;;;;;;4.27;74.73;98898.63;6234283;23;20028;-91
2023/10/24 05:35:47;;;;;;;16.45;8.65;;;;;;;3.89;74.77;98868.59;6133886;23;20032;-92
2023/10/24 05:38:16;;;;;;;23.35;10.85;;;;;;;3.81;75.58;98868.34;6160497;23;19997;-89
2023/10/24 05:40:46;;;;;;;20.05;10.93;;;;;;;3.87;76.18;98919.41;6184153;23;20527;-90
2023/10/24 05:43:14;;;;;;;26.20;11.20;;;;;;;3.81;76.90;98901.63;6178006;23;20025;-88
2023/10/24 05:45:40;;;;;;;19.38;10.30;;;;;;;3.90;76.63;98885.59;6183353;23;20012;-90
2023/10/24 05:48:08;;;;;;;23.90;11.35;;;;;;;3.50;76.07;98833.38;6106205;23;20047;-91
2023/10/24 05:50:44;;;;;;;20.42;11.18;;;;;;;4.05;76.76;98945.03;6156138;23;20430;-94
2023/10/24 05:53:12;;;;;;;21.08;10.45;;;;;;;3.51;76.36;98843.13;6149972;23;20023;-90
2023/10/24 05:55:41;;;;;;;23.52;11.95;;;;;;;4.07;76.67;98942.03;6105129;23;19997;-90
2023/10/24 05:58:07;;;;;;;20.27;11.00;;;;;;;3.71;76.49;98867.34;6125198;23;20088;-90
2023/10/24 06:00:35;;;;;;;20.27;10.98;;;;;;;3.76;77.27;98875.41;6151061;23;20102;-89
2023/10/24 06:03:03;;;;;;;26.63;12.02;;;;;;;4.14;77.12;98929.84;6127056;23;20021;-90
2023/10/24 06:05:34;;;;;;;26.10;12.93;;;;;;;4.30;76.65;98937.84;6128166;23;20025;-90
2023/10/24 06:08:04;;;;;;;29.02;11.73;;;;;;;4.10;76.50;98909.00;6128273;23;20083;-92
2023/10/24 06:10:31;;;;;;;26.45;12.75;;;;;;;3.52;76.11;98825.81;6154025;23;20024;-92
2023/10/24 06:12:57;;;;;;;24.75;10.30;;;;;;;3.85;76.20;98904.59;6129619;23;20088;-92
2023/10/24 06:15:23;;;;;;;31.30;11.50;;;;;;;3.73;77.02;98875.16;6128795;23;20068;-91
2023/10/24 06:17:55;;;;;;;26.88;12.15;;;;;;;3.64;76.72;98879.53;6128182;23;19993;-91
2023/10/24 06:20:24;;;;;;;29.92;11.95;;;;;;;4.25;77.24;98952.22;6173992;23;20021;-89
2023/10/24 06:22:51;;;;;;;25.25;11.45;;;;;;;4.34;76.81;98955.13;6076401;23;20024;-93
2023/10/24 06:25:43;;;;;;;18.63;10.45;;;;;;;3.59;76.48;98847.94;6152886;23;20407;-92
2023/10/24 06:28:19;;;;;;;22.65;11.25;;;;;;;3.96;76.61;98906.94;6136802;23;20040;-91
2023/10/24 06:30:46;;;;;;;23.83;10.85;;;;;;;3.59;76.60;98866.84;6188307;23;20042;-89
2023/10/24 06:33:16;;;;;;;30.02;12.85;;;;;;;4.29;77.49;98963.28;5422833;23;17801599;-87
2023/10/24 06:35:43;;;;;;;23.42;12.13;;;;;;;4.11;76.66;98932.28;6176456;23;20028;-89
2023/10/24 06:38:20;;;;;;;23.17;12.30;;;;;;;4.36;76.85;98969.19;6125727;23;20391;-87
2023/10/24 06:40:46;;;;;;;21.30;11.18;;;;;;;4.27;76.52;98971.66;6130600;23;20029;-92
2023/10/24 06:43:59;;;;;;;29.23;13.25;;;;;;;4.27;76.74;98977.06;6127806;23;20022;-92
2023/10/24 06:46:33;;;;;;;30.45;11.60;;;;;;;4.34;76.85;98983.00;6130952;23;20017;-89
2023/10/24 06:49:02;;;;;;;24.83;11.57;;;;;;;4.22;76.78;98980.63;6183053;23;20017;-88
2023/10/24 06:51:29;;;;;;;27.40;12.57;;;;;;;4.21;77.43;98980.91;6160493;23;20016;-90
2023/10/24 06:53:55;;;;;;;22.05;11.73;;;;;;;4.22;77.24;98966.31;6158932;23;20007;-91
2023/10/24 06:56:21;;;;;;;35.15;13.45;;;;;;;4.46;77.58;98974.53;6159151;23;20020;-89
2023/10/24 06:59:08;;;;;;;30.23;12.85;;;;;;;4.63;76.53;98984.97;6186216;23;20021;-91
2023/10/24 07:02:15;;;;;;;33.75;13.77;;;;;;;4.55;75.43;98956.59;6157191;23;20095;-89
2023/10/24 07:04:44;;;;;;;25.77;11.27;;;;;;;4.80;75.52;98980.00;6132979;23;20028;-91
2023/10/24 07:07:14;;;;;;;33.85;12.80;;;;;;;4.86;74.80;98980.72;6157398;23;20109;-91
2023/10/24 07:09:40;;;;;;;36.50;12.75;;;;;;;4.79;74.38;98966.72;6157085;23;20617;-91
2023/10/24 07:13:08;;;;;;;30.85;12.52;;;;;;;5.08;74.24;98991.13;6167145;23;20005;-90
2023/10/24 07:15:35;;;;;;;34.88;12.20;;;;;;;5.06;74.20;98993.28;6159304;23;20021;-91
2023/10/24 07:18:07;;;;;;;22.65;11.02;;;;;;;4.92;75.01;98999.38;6134197;23;20005;-90
2023/10/24 07:23:27;;;;;;;26.48;11.80;;;;;;;4.66;75.66;98973.56;6223305;23;20013;-90
2023/10/24 07:25:57;;;;;;;;;;;;;;;4.81;75.45;98999.75;6185755;23;20028;-91
2023/10/24 07:29:13;;;;;;;20.80;10.48;;;;;;;4.70;75.38;98996.28;6159372;23;19916;-88
2023/10/24 07:31:39;;;;;;;29.83;13.52;;;;;;;4.34;75.72;98947.00;6154899;23;20076;-87
2023/10/24 07:34:05;;;;;;;30.92;10.80;;;;;;;4.58;75.88;98988.53;6179007;23;20073;-90
2023/10/24 07:36:35;;;;;;;28.48;13.23;;;;;;;4.39;75.94;98960.50;6158391;23;20021;-89
2023/10/24 07:39:02;;;;;;;49.95;13.77;;;;;;;4.59;76.06;98989.34;6162094;23;20060;-88
2023/10/24 07:41:36;;;;;;;27.77;12.23;;;;;;;4.57;75.87;98992.34;6127178;23;20053;-89
2023/10/24 07:44:04;;;;;;;29.17;12.55;;;;;;;4.47;76.11;98995.13;6099890;23;20024;-93
2023/10/24 07:46:30;;;;;;;26.42;12.23;;;;;;;4.70;75.78;99012.53;6075748;23;20022;-91
2023/10/24 07:49:01;;;;;;;25.02;11.60;;;;;;;4.57;75.70;99000.47;6073856;23;20077;-91
2023/10/24 07:51:38;;;;;;;21.50;10.32;;;;;;;4.51;75.55;98988.03;6075735;23;20009;-90
2023/10/24 07:54:28;;;;;;;23.45;11.10;;;;;;;4.50;75.65;98991.81;6102082;23;20045;-90
2023/10/24 07:57:51;;;;;;;31.75;12.00;;;;;;;4.69;75.77;99029.88;6106072;23;20009;-91
2023/10/24 08:00:52;;;;;;;19.55;10.32;;;;;;;4.51;75.52;99014.31;6130834;23;20135;-91
2023/10/24 08:03:22;;;;;;;34.90;12.57;;;;;;;4.53;76.52;99033.75;6135608;23;20004;-90
2023/10/24 08:06:10;;;;;;;40.33;12.05;;;;;;;4.31;76.66;98988.19;6135650;23;20017;-91
2023/10/24 08:08:39;;;;;;;24.60;10.65;;;;;;;4.46;76.57;99043.00;6128757;23;20061;-90
2023/10/24 08:11:06;;;;;;;21.95;11.27;;;;;;;4.48;76.51;99037.31;6132076;23;20021;-92
2023/10/24 08:13:42;;;;;;;22.40;10.13;;;;;;;4.28;76.23;99019.28;6138672;23;20025;-92
2023/10/24 08:16:11;;;;;;;42.33;11.98;;;;;;;3.99;76.27;98986.69;6168617;23;20025;-89
2023/10/24 08:18:59;;;;;;;20.15;9.63;;;;;;;4.34;76.26;99039.84;6217192;23;20027;-90
2023/10/24 08:21:35;;;;;;;28.80;11.50;;;;;;;4.38;76.19;99048.19;6214812;23;20024;-89
2023/10/24 08:24:03;;;;;;;26.05;10.95;;;;;;;4.36;75.56;99032.22;6187332;23;20064;-92
2023/10/24 08:42:53;;;;;;;19.73;9.77;;;;;;;3.67;75.50;99009.53;6193853;23;20005;-94
2023/10/24 08:49:18;;;;;;;29.65;10.63;;;;;;;4.10;74.90;99064.00;6237673;22;20033;-95
2023/10/24 08:51:59;;;;;;;19.50;8.88;;;;;;;3.60;74.22;98994.69;6201593;23;20051;-92
2023/10/24 09:03:25;;;;;;;23.27;9.40;;;;;;;3.92;72.61;99051.91;6242905;23;20024;-93
2023/10/24 09:05:57;;;;;;;25.60;10.35;;;;;;;4.14;73.03;99091.31;6241822;23;20089;-92
2023/10/24 09:08:35;;;;;;;18.95;8.65;;;;;;;4.15;71.85;99082.13;6197725;23;20000;-92
2023/10/24 09:11:04;;;;;;;;;;;;;;;4.25;71.62;99082.09;6143976;23;20024;-91
2023/10/24 09:16:58;;;;;;;20.42;8.73;;;;;;;3.79;71.22;98995.72;6238458;23;20032;-93
2023/10/24 09:26:32;;;;;;;16.27;8.27;;;;;;;3.92;70.58;99014.03;6197720;23;20020;-93
2023/10/24 09:30:07;;;;;;;20.35;8.57;;;;;;;4.19;70.39;99046.13;6242630;23;20004;-94
2023/10/24 09:47:29;;;;;;;19.55;7.72;;;;;;;4.00;70.10;99115.44;6232648;23;20028;-91
2023/10/24 09:50:24;;;;;;;17.63;8.32;;;;;;;3.67;70.60;99047.38;6214796;23;20021;-90
2023/10/24 09:53:14;;;;;;;19.83;8.88;;;;;;;4.36;70.21;99123.44;6167010;23;20020;-90
2023/10/24 09:55:48;;;;;;;27.60;9.35;;;;;;;3.90;68.95;99059.47;6192505;23;20020;-90
2023/10/24 09:58:25;;;;;;;18.40;8.57;;;;;;;3.87;69.41;99073.53;6217097;23;20020;-92
2023/10/24 10:01:32;;;;;;;20.70;9.48;;;;;;;4.06;69.73;99137.88;6192604;23;20001;-90
2023/10/24 10:04:13;;;;;;;23.70;8.97;;;;;;;3.87;69.97;99122.22;6155084;23;20021;-91
2023/10/24 10:09:29;;;;;;;18.73;9.30;;;;;;;3.46;69.38;99068.22;6098300;23;20038;-88
2023/10/24 10:12:13;;;;;;;23.15;8.15;;;;;;;3.60;68.69;99102.78;6096333;23;20053;-91
2023/10/24 10:15:06;;;;;;;17.52;8.50;;;;;;;3.92;67.92;99143.03;6093173;23;20029;-91
2023/10/24 10:18:29;;;;;;;16.38;7.78;;;;;;;3.90;66.65;99112.75;6028850;23;20028;-90
2023/10/24 10:21:30;;;;;;;24.13;7.60;;;;;;;3.88;65.49;99090.59;6033037;23;20023;-89
2023/10/24 10:24:28;;;;;;;18.58;7.53;;;;;;;4.21;65.23;99156.78;5965197;23;20350;-90
2023/10/24 10:27:28;;;;;;;18.70;8.35;;;;;;;3.82;66.25;99106.00;6034794;23;20010;-92
2023/10/24 10:31:07;;;;;;;12.30;6.90;;;;;;;4.08;64.99;99152.75;6036332;23;20032;-93
2023/10/24 10:33:43;;;;;;;15.18;7.65;;;;;;;3.69;65.42;99061.44;6032729;23;20025;-90
2023/10/24 10:54:46;;;;;;;14.82;7.35;;;;;;;4.59;64.99;99184.25;6197052;23;20021;-92
2023/10/24 11:04:21;;;;;;;13.88;6.53;;;;;;;4.78;61.92;99171.72;6236361;23;20028;-95
2023/10/24 11:07:41;;;;;;;21.77;7.57;;;;;;;4.21;61.66;99094.56;6140974;23;20001;-95
2023/10/24 11:13:48;;;;;;;11.25;6.55;;;;;;;4.51;60.39;99209.19;6204835;23;20008;-94
2023/10/24 11:23:09;;;;;;;18.00;5.97;;;;;;;4.60;61.29;99207.50;6184525;23;20032;-93
2023/10/24 11:25:49;;;;;;;14.73;5.95;;;;;;;4.44;60.66;99221.13;6185712;23;20009;-90
2023/10/24 11:28:17;;;;;;;18.92;6.55;;;;;;;4.03;61.46;99170.88;6157123;23;20074;-89
2023/10/24 11:30:48;;;;;;;12.70;6.88;;;;;;;4.18;62.05;99201.41;6131355;23;20029;-89
2023/10/24 11:33:37;;;;;;;14.90;7.30;;;;;;;3.89;62.62;99168.72;6111274;23;20012;-89
2023/10/24 11:36:27;;;;;;;19.42;6.75;;;;;;;4.07;64.32;99226.03;6168340;23;20033;-89
2023/10/24 12:31:57;;;;;;;22.25;6.57;;;;;;;2.94;64.52;99204.31;6227772;22;20024;-94
2023/10/24 12:34:28;;;;;;;12.95;6.07;;;;;;;3.01;65.26;99242.69;6236181;23;20023;-91
2023/10/24 12:36:57;;;;;;;12.80;6.45;;;;;;;3.42;66.17;99317.63;6161175;23;20040;-92
2023/10/24 12:39:24;;;;;;;21.23;6.53;;;;;;;3.50;67.04;99312.50;6161940;23;20012;-94
2023/10/24 12:41:52;;;;;;;12.63;6.40;;;;;;;3.45;65.96;99312.50;6160360;23;19996;-93
2023/10/24 12:51:08;;;;;;;18.25;6.25;;;;;;;3.33;66.02;99281.41;6236956;23;20084;-90
2023/10/24 12:53:35;;;;;;;20.55;7.30;;;;;;;3.18;66.73;99253.28;6159298;23;20020;-92
2023/10/24 12:56:12;;;;;;;8.77;5.30;;;;;;;2.71;65.95;99235.25;6162631;23;20017;-91
2023/10/24 12:58:39;;;;;;;16.55;6.63;;;;;;;3.16;66.88;99304.03;6161162;23;20036;-91
2023/10/24 13:01:10;;;;;;;26.13;6.85;;;;;;;2.98;66.85;99286.44;6186040;23;20020;-93
2023/10/24 13:03:38;;;;;;;24.17;7.18;;;;;;;2.81;66.98;99288.47;6164023;23;20027;-92
2023/10/24 13:06:25;;;;;;;9.98;5.63;;;;;;;2.80;67.97;99265.28;6186371;23;20024;-88
2023/10/24 13:08:53;;;;;;;16.42;6.13;;;;;;;2.93;66.99;99278.28;6186191;23;20039;-92
2023/10/24 13:11:22;;;;;;;13.60;4.53;;;;;;;3.19;67.02;99318.91;6168336;23;20000;-92
2023/10/24 13:13:51;;;;;;;15.93;3.95;;;;;;;3.12;67.61;99326.44;6167549;23;20016;-93
2023/10/24 13:16:41;;;;;;;15.13;4.55;;;;;;;3.05;67.40;99332.09;6182642;23;20031;-92
2023/10/24 13:27:38;;;;;;;9.68;4.28;;;;;;;2.62;68.25;99276.53;6211856;23;20009;-90
2023/10/24 13:30:28;;;;;;;7.18;3.60;;;;;;;3.05;69.06;99341.00;6115983;23;20028;-90
2023/10/24 13:33:04;;;;;;;6.75;3.53;;;;;;;2.68;68.17;99295.19;6140366;23;20051;-90
2023/10/24 13:35:32;;;;;;;18.88;4.05;;;;;;;3.05;68.45;99351.81;6158010;23;20052;-89
2023/10/24 13:38:10;;;;;;;10.05;3.78;;;;;;;2.58;68.14;99285.16;6185347;23;20017;-91
2023/10/24 13:41:02;;;;;;;5.93;3.53;;;;;;;2.97;67.69;99352.28;6186263;23;20016;-91
2023/10/24 13:43:31;;;;;;;9.23;3.75;;;;;;;2.88;67.12;99328.75;6111925;23;20033;-91
2023/10/24 13:45:57;;;;;;;7.60;3.80;;;;;;;2.82;67.47;99311.72;6158315;23;20017;-90
2023/10/24 13:48:23;;;;;;;7.75;4.30;;;;;;;2.84;66.99;99341.94;6131817;23;20012;-88
2023/10/24 14:02:26;;;;;;;10.23;3.58;;;;;;;2.44;66.35;99356.81;6185940;23;20013;-89
2023/10/24 15:01:31;;;;;;;3.50;2.20;;;;;;;1.03;64.55;99353.22;6216973;23;20024;-89
2023/10/24 15:05:10;;;;;;;3.42;2.60;;;;;;;1.21;65.42;99392.47;6219052;23;20028;-93
2023/10/24 15:08:47;;;;;;;5.97;2.75;;;;;;;1.40;64.76;99417.22;6165518;23;20028;-91
2023/10/24 15:11:15;;;;;;;11.32;3.58;;;;;;;1.54;64.87;99417.66;6159421;23;20025;-90
2023/10/24 15:13:46;;;;;;;4.45;2.95;;;;;;;1.42;63.57;99420.47;6111831;23;20020;-90
2023/10/24 15:16:16;;;;;;;5.93;3.20;;;;;;;1.31;64.07;99399.88;6132867;23;20001;-90
2023/10/24 15:19:06;;;;;;;5.75;3.28;;;;;;;1.72;63.51;99454.25;6168663;23;20027;-92
2023/10/24 15:36:09;;;;;;;10.48;3.58;;;;;;;1.10;62.20;99405.00;6208308;23;20017;-90
2023/10/24 15:39:02;;;;;;;4.27;2.93;;;;;;;1.16;61.70;99441.69;6158764;23;20016;-89
2023/10/24 15:41:44;;;;;;;5.88;3.05;;;;;;;1.36;62.54;99451.13;6161218;23;20057;-88
2023/10/24 15:50:54;;;;;;;5.78;3.90;;;;;;;1.40;61.32;99479.19;6234736;23;20915;-89
2023/10/24 15:53:58;;;;;;;5.82;2.80;;;;;;;1.49;61.27;99499.25;6200030;23;20021;-91
2023/10/24 15:56:30;;;;;;;2.83;2.20;;;;;;;1.33;61.03;99484.75;6152666;23;20036;-90
2023/10/24 15:59:46;;;;;;;4.50;3.33;;;;;;;1.55;60.79;99506.31;6132405;23;20025;-89
2023/10/24 16:02:34;;;;;;;8.23;3.42;;;;;;;1.41;60.86;99483.50;6134062;23;20072;-89
2023/10/24 16:05:18;;;;;;;5.75;3.42;;;;;;;1.18;60.76;99431.47;6156468;23;20016;-90
2023/10/24 16:07:57;;;;;;;6.65;3.53;;;;;;;1.62;59.69;99500.75;6086067;23;20017;-89
2023/10/24 16:10:38;;;;;;;4.88;3.00;;;;;;;1.70;59.31;99519.19;6130117;23;20082;-90
2023/10/24 16:24:56;;;;;;;9.55;4.18;;;;;;;1.39;60.37;99447.91;6239669;22;20032;-90
2023/10/24 16:27:45;;;;;;;12.30;3.92;;;;;;;1.71;60.29;99487.66;6167502;23;20004;-89
2023/10/24 16:30:19;;;;;;;4.63;3.53;;;;;;;1.31;60.29;99435.69;6165931;23;20020;-85
2023/10/24 16:32:47;;;;;;;6.70;4.25;;;;;;;1.18;59.85;99428.78;6112225;23;20367;-87
2023/10/24 16:35:17;;;;;;;8.18;3.25;;;;;;;1.56;59.81;99491.78;6203510;23;20067;-85